Time;durP1;ratioP1;P1;durP2;ratioP2;P2;SDS_P1;SDS_P2;PMS_P1;PMS_P2;Temp;Humidity;BMP_temperature;BMP_pressure;BME280_temperature;BME280_humidity;BME280_pressure;Samples;Min_cycle;Max_cycle;Signal;HPM_P1;HPM_P2
2021/08/18 00:00:45;;;;;;;8.18;5.00;;;17.00;99.90;;;;;;5020816;28;25078;-77
2021/08/18 00:03:12;;;;;;;7.45;4.38;;;17.10;99.90;;;;;;5028456;28;25074;-76
2021/08/18 00:05:39;;;;;;;9.27;4.43;;;17.10;99.90;;;;;;5028466;28;25115;-76
2021/08/18 00:08:09;;;;;;;10.48;4.22;;;17.10;99.90;;;;;;5023373;28;25063;-76
2021/08/18 00:10:36;;;;;;;9.70;4.93;;;17.10;99.90;;;;;;5020652;28;25091;-75
2021/08/18 00:13:03;;;;;;;10.93;4.85;;;17.10;99.90;;;;;;5025807;28;25067;-77
2021/08/18 00:15:29;;;;;;;9.05;4.85;;;17.00;99.90;;;;;;5011372;28;25057;-70
2021/08/18 00:17:59;;;;;;;9.30;5.07;;;16.90;99.90;;;;;;5009024;28;25132;-80
2021/08/18 00:20:27;;;;;;;16.17;5.35;;;16.80;99.90;;;;;;5011615;28;25076;-78
2021/08/18 00:22:53;;;;;;;6.65;4.53;;;16.70;99.90;;;;;;5013746;28;25064;-76
2021/08/18 00:25:19;;;;;;;6.85;4.45;;;16.70;99.90;;;;;;5012878;28;25113;-76
2021/08/18 00:27:44;;;;;;;11.95;4.38;;;16.70;99.90;;;;;;5002525;28;25079;-77
2021/08/18 00:30:10;;;;;;;7.53;4.60;;;16.60;99.90;;;;;;5014678;28;25126;-80
2021/08/18 00:32:36;;;;;;;11.50;4.07;;;16.70;99.90;;;;;;5015836;28;25177;-78
2021/08/18 00:35:01;;;;;;;12.13;4.43;;;16.70;99.90;;;;;;5011778;28;25149;-77
2021/08/18 00:37:27;;;;;;;10.98;4.60;;;16.70;99.90;;;;;;5013219;28;25053;-79
2021/08/18 00:39:53;;;;;;;13.85;4.65;;;16.70;99.90;;;;;;5022707;28;25073;-75
2021/08/18 00:42:19;;;;;;;6.38;3.83;;;16.70;99.90;;;;;;4999062;28;25071;-78
2021/08/18 00:44:45;;;;;;;11.60;4.28;;;16.80;99.90;;;;;;5013659;28;25065;-76
2021/08/18 00:47:11;;;;;;;15.65;4.93;;;16.70;99.90;;;;;;5015988;28;25078;-78
2021/08/18 00:49:37;;;;;;;9.23;3.15;;;16.70;99.90;;;;;;5015414;28;25056;-77
2021/08/18 00:52:04;;;;;;;12.10;4.05;;;16.80;99.90;;;;;;5013515;28;25050;-78
2021/08/18 00:54:29;;;;;;;7.75;4.32;;;16.90;99.90;;;;;;5014241;28;25059;-76
2021/08/18 00:56:56;;;;;;;9.63;4.03;;;16.90;99.90;;;;;;5019791;28;25062;-76
2021/08/18 00:59:24;;;;;;;9.95;4.13;;;16.90;99.90;;;;;;5016944;28;25053;-77
2021/08/18 01:01:50;;;;;;;12.43;3.92;;;16.90;99.90;;;;;;5021640;28;25084;-76
2021/08/18 01:04:16;;;;;;;10.25;3.70;;;16.90;99.90;;;;;;5024255;28;25106;-79
2021/08/18 01:06:44;;;;;;;9.02;4.05;;;16.90;99.90;;;;;;5010698;28;25067;-76
2021/08/18 01:09:15;;;;;;;8.70;3.63;;;17.00;99.90;;;;;;5026035;28;25086;-78
2021/08/18 01:11:43;;;;;;;10.77;4.22;;;17.00;99.90;;;;;;5000965;28;25060;-78
2021/08/18 01:14:09;;;;;;;7.43;2.85;;;17.00;99.90;;;;;;5019050;28;25073;-77
2021/08/18 01:16:37;;;;;;;9.32;3.67;;;17.00;99.90;;;;;;5016247;28;25074;-77
2021/08/18 01:19:05;;;;;;;11.88;3.85;;;17.00;99.90;;;;;;5016347;28;25059;-78
2021/08/18 01:21:32;;;;;;;13.68;3.40;;;17.00;99.90;;;;;;5016031;28;25078;-77
2021/08/18 01:23:58;;;;;;;5.65;3.42;;;17.00;99.90;;;;;;5021270;28;25076;-78
2021/08/18 01:26:24;;;;;;;7.95;2.72;;;17.00;99.90;;;;;;5016880;28;25084;-78
2021/08/18 01:28:50;;;;;;;5.60;3.13;;;17.00;99.90;;;;;;5013854;28;25075;-77
2021/08/18 01:31:17;;;;;;;7.72;3.30;;;16.90;99.90;;;;;;5017848;28;25177;-76
2021/08/18 01:33:43;;;;;;;8.40;3.30;;;16.90;99.90;;;;;;5002891;28;25045;-77
2021/08/18 01:36:08;;;;;;;12.40;3.45;;;16.90;99.90;;;;;;5003932;28;26179;-77
2021/08/18 01:38:34;;;;;;;11.80;3.33;;;16.90;99.90;;;;;;5019754;28;25059;-75
2021/08/18 01:41:01;;;;;;;7.82;2.80;;;16.90;99.90;;;;;;5020106;28;25110;-76
2021/08/18 01:43:27;;;;;;;9.65;3.22;;;16.90;99.90;;;;;;5024265;28;25082;-77
2021/08/18 01:45:53;;;;;;;9.52;3.40;;;16.90;99.90;;;;;;5025839;28;25122;-76
2021/08/18 01:48:21;;;;;;;8.80;2.90;;;16.90;99.90;;;;;;5025823;28;25059;-77
2021/08/18 01:50:49;;;;;;;10.73;3.28;;;17.00;99.90;;;;;;5024392;28;25068;-77
2021/08/18 01:53:28;;;;;;;7.32;2.83;;;17.00;99.90;;;;;;5025582;28;25109;-77
2021/08/18 01:55:54;;;;;;;5.43;2.60;;;17.10;99.90;;;;;;5026758;28;25075;-77
2021/08/18 01:58:20;;;;;;;6.80;3.15;;;17.10;99.90;;;;;;5025622;28;25088;-77
2021/08/18 02:00:46;;;;;;;6.93;3.10;;;17.00;99.90;;;;;;5026841;28;25068;-77
2021/08/18 02:03:11;;;;;;;11.25;2.80;;;16.90;99.90;;;;;;5022260;28;25080;-77
2021/08/18 02:05:37;;;;;;;7.07;3.13;;;16.80;99.90;;;;;;4998340;28;25065;-77
2021/08/18 02:08:04;;;;;;;7.85;3.10;;;16.70;99.90;;;;;;5015613;28;25108;-78
2021/08/18 02:10:29;;;;;;;6.63;2.78;;;16.80;99.90;;;;;;5018422;28;25104;-78
2021/08/18 02:12:55;;;;;;;5.75;2.80;;;16.80;99.90;;;;;;4998269;28;25058;-76
2021/08/18 02:15:40;;;;;;;7.72;2.92;;;16.90;99.90;;;;;;5012033;28;25089;-77
2021/08/18 02:18:08;;;;;;;7.07;2.53;;;16.90;99.90;;;;;;5015622;28;25073;-77
2021/08/18 02:20:36;;;;;;;10.43;2.40;;;17.00;99.90;;;;;;5012366;28;25052;-76
2021/08/18 02:23:03;;;;;;;8.18;2.40;;;17.00;99.90;;;;;;5011700;28;25094;-77
2021/08/18 02:25:28;;;;;;;7.47;2.97;;;17.00;99.90;;;;;;5014653;28;25076;-77
2021/08/18 02:27:54;;;;;;;9.63;2.45;;;17.00;99.90;;;;;;5017768;28;25068;-77
2021/08/18 02:30:22;;;;;;;8.60;2.83;;;17.10;99.90;;;;;;5018152;28;25075;-76
2021/08/18 02:32:49;;;;;;;6.38;2.85;;;17.10;99.90;;;;;;5000857;28;25072;-77
2021/08/18 02:35:15;;;;;;;7.30;3.00;;;17.00;99.90;;;;;;5015018;28;25159;-78
2021/08/18 02:37:42;;;;;;;9.88;3.78;;;16.90;99.90;;;;;;5012687;28;25078;-78
2021/08/18 02:40:09;;;;;;;17.27;3.45;;;16.90;99.90;;;;;;5013963;28;25086;-76
2021/08/18 02:42:35;;;;;;;8.90;3.83;;;16.90;99.90;;;;;;5012033;28;25106;-77
2021/08/18 02:45:00;;;;;;;6.72;3.88;;;16.90;99.90;;;;;;5015663;28;25101;-77
2021/08/18 02:47:26;;;;;;;12.45;3.78;;;17.00;99.90;;;;;;5014491;28;25061;-77
2021/08/18 02:49:52;;;;;;;5.20;3.65;;;17.00;99.90;;;;;;5028177;28;25079;-77
2021/08/18 02:52:19;;;;;;;9.55;3.90;;;17.00;99.90;;;;;;5028068;28;25117;-77
2021/08/18 02:54:45;;;;;;;10.77;3.88;;;16.80;99.90;;;;;;5032450;28;25073;-77
2021/08/18 02:57:11;;;;;;;5.65;3.58;;;16.90;99.90;;;;;;5028563;28;25101;-78
2021/08/18 02:59:37;;;;;;;6.40;3.72;;;16.90;99.90;;;;;;5016160;28;25073;-78
2021/08/18 03:02:02;;;;;;;6.30;3.60;;;16.90;99.90;;;;;;4997794;28;25138;-77
2021/08/18 03:04:28;;;;;;;6.93;2.92;;;16.90;99.90;;;;;;5018522;28;25118;-77
2021/08/18 03:06:54;;;;;;;5.10;3.03;;;16.90;99.90;;;;;;5014595;28;25060;-77
2021/08/18 03:09:24;;;;;;;4.93;3.00;;;16.90;99.90;;;;;;5017432;28;25048;-77
2021/08/18 03:11:51;;;;;;;6.20;3.20;;;16.90;99.90;;;;;;5017614;28;25181;-77
2021/08/18 03:14:19;;;;;;;13.02;3.15;;;17.00;99.90;;;;;;5017662;28;25097;-78
2021/08/18 03:16:45;;;;;;;9.65;3.22;;;16.90;99.90;;;;;;5016418;28;25105;-79
2021/08/18 03:19:11;;;;;;;13.73;4.18;;;17.00;99.90;;;;;;5012422;28;25111;-78
2021/08/18 03:21:36;;;;;;;6.60;3.60;;;16.90;99.90;;;;;;5014354;28;25113;-77
2021/08/18 03:24:02;;;;;;;11.93;4.72;;;16.80;99.90;;;;;;5012214;28;25169;-78
2021/08/18 03:26:28;;;;;;;6.90;3.67;;;16.80;99.90;;;;;;5012232;28;25068;-78
2021/08/18 03:28:53;;;;;;;8.98;4.15;;;16.80;99.90;;;;;;5012329;28;25060;-76
2021/08/18 03:31:19;;;;;;;7.45;4.03;;;16.80;99.90;;;;;;5014227;28;25150;-76
2021/08/18 03:33:44;;;;;;;8.60;4.15;;;16.80;99.90;;;;;;5017790;28;25067;-78
2021/08/18 03:36:10;;;;;;;8.15;4.13;;;16.90;99.90;;;;;;5017284;28;25126;-77
2021/08/18 03:38:36;;;;;;;6.25;4.50;;;16.90;99.90;;;;;;5021298;28;25144;-78
2021/08/18 03:41:02;;;;;;;11.20;3.70;;;17.00;99.90;;;;;;5022047;28;25063;-77
2021/08/18 03:43:28;;;;;;;11.65;4.97;;;17.00;99.90;;;;;;5022605;28;25109;-78
2021/08/18 03:45:53;;;;;;;11.35;4.28;;;16.90;99.90;;;;;;5021925;28;25067;-76
2021/08/18 03:48:19;;;;;;;12.68;4.30;;;17.00;99.90;;;;;;5017998;28;25058;-77
2021/08/18 03:50:45;;;;;;;11.75;4.20;;;16.90;99.90;;;;;;5018529;28;25098;-78
2021/08/18 03:53:11;;;;;;;7.45;4.05;;;17.00;99.90;;;;;;5018500;28;25078;-77
2021/08/18 03:55:37;;;;;;;6.38;4.20;;;17.00;99.90;;;;;;4999543;28;25065;-78
2021/08/18 03:58:02;;;;;;;7.03;4.03;;;17.00;99.90;;;;;;5019265;28;25054;-77
2021/08/18 04:00:28;;;;;;;10.18;4.50;;;17.00;99.90;;;;;;5019101;28;25100;-76
2021/08/18 04:02:53;;;;;;;9.70;5.07;;;17.10;99.90;;;;;;5019148;28;25123;-76
2021/08/18 04:05:19;;;;;;;13.38;4.72;;;17.10;99.90;;;;;;5022058;28;25081;-77
2021/08/18 04:07:45;;;;;;;10.35;5.22;;;17.20;99.90;;;;;;5018875;28;25057;-77
2021/08/18 04:10:10;;;;;;;5.93;4.47;;;17.10;99.90;;;;;;5022605;28;25101;-77
2021/08/18 04:12:53;;;;;;;13.40;4.63;;;16.90;99.90;;;;;;5022612;28;25062;-77
2021/08/18 04:15:28;;;;;;;13.18;4.72;;;17.00;99.90;;;;;;5005216;28;25070;-77
2021/08/18 04:17:54;;;;;;;11.80;4.80;;;17.00;99.90;;;;;;5025020;28;25099;-76
2021/08/18 04:20:20;;;;;;;7.82;4.35;;;17.10;99.90;;;;;;5022813;28;25044;-77
2021/08/18 04:22:46;;;;;;;8.18;4.43;;;17.00;99.90;;;;;;5020504;28;25113;-78
2021/08/18 04:25:14;;;;;;;12.15;4.35;;;17.00;99.90;;;;;;5017728;28;25092;-75
2021/08/18 04:27:40;;;;;;;9.55;5.45;;;17.00;99.90;;;;;;5019865;28;25069;-78
2021/08/18 04:30:08;;;;;;;11.93;5.28;;;17.20;99.90;;;;;;5020327;28;25075;-76
2021/08/18 04:32:34;;;;;;;7.20;4.63;;;17.20;99.90;;;;;;5019013;28;25062;-77
2021/08/18 04:35:00;;;;;;;11.90;5.00;;;17.20;99.90;;;;;;5019885;28;25143;-80
2021/08/18 04:37:25;;;;;;;10.95;4.82;;;17.10;99.90;;;;;;5017478;28;25056;-78
2021/08/18 04:39:51;;;;;;;9.45;4.97;;;17.10;99.90;;;;;;5015577;28;25091;-77
2021/08/18 04:42:18;;;;;;;8.70;4.25;;;17.20;99.90;;;;;;5021491;28;25060;-76
2021/08/18 04:44:43;;;;;;;10.02;5.22;;;17.20;99.90;;;;;;5022657;28;25079;-77
2021/08/18 04:47:09;;;;;;;10.50;4.88;;;17.30;99.90;;;;;;5023918;28;25055;-76
2021/08/18 04:49:34;;;;;;;10.48;5.38;;;17.30;99.90;;;;;;5021245;28;25060;-77
2021/08/18 04:52:00;;;;;;;9.43;4.45;;;17.20;99.90;;;;;;5023334;28;25076;-76
2021/08/18 04:54:25;;;;;;;9.82;5.40;;;17.20;99.90;;;;;;5023505;28;25084;-76
2021/08/18 04:56:51;;;;;;;12.10;4.90;;;17.00;99.90;;;;;;5020228;28;25056;-77
2021/08/18 04:59:17;;;;;;;11.18;5.20;;;17.10;99.90;;;;;;5021372;28;25071;-77
2021/08/18 05:01:42;;;;;;;12.02;5.65;;;17.00;99.90;;;;;;5003755;28;25076;-76
2021/08/18 05:04:08;;;;;;;9.05;5.70;;;16.90;99.90;;;;;;5017652;28;25059;-77
2021/08/18 05:06:34;;;;;;;7.78;5.43;;;16.90;99.90;;;;;;5021672;28;25102;-77
2021/08/18 05:09:00;;;;;;;11.27;5.50;;;16.90;99.90;;;;;;5004729;28;25053;-77
2021/08/18 05:11:26;;;;;;;8.07;5.95;;;17.00;99.90;;;;;;5022968;28;25085;-76
2021/08/18 05:13:51;;;;;;;7.90;5.53;;;17.10;99.90;;;;;;5024450;28;25055;-77
2021/08/18 05:16:17;;;;;;;11.27;5.78;;;17.30;99.90;;;;;;5020907;28;25099;-77
2021/08/18 05:18:49;;;;;;;10.20;5.47;;;17.30;99.90;;;;;;5022357;28;25078;-77
2021/08/18 05:21:15;;;;;;;7.88;4.60;;;17.30;99.90;;;;;;5019364;28;25065;-79
2021/08/18 05:23:41;;;;;;;8.23;4.90;;;17.30;99.90;;;;;;5021765;28;25076;-78
2021/08/18 05:26:06;;;;;;;5.93;4.70;;;17.30;99.90;;;;;;5020244;28;25114;-77
2021/08/18 05:28:32;;;;;;;6.55;4.70;;;17.20;99.90;;;;;;5018364;28;25082;-76
2021/08/18 05:30:58;;;;;;;8.20;6.13;;;17.10;99.90;;;;;;5015924;28;25074;-78
2021/08/18 05:33:25;;;;;;;11.38;5.90;;;17.10;99.90;;;;;;5017529;28;25086;-76
2021/08/18 05:35:50;;;;;;;10.07;6.03;;;17.20;99.90;;;;;;5017678;28;25096;-76
2021/08/18 05:38:16;;;;;;;10.45;6.13;;;17.20;99.90;;;;;;5019911;28;25079;-77
2021/08/18 05:40:42;;;;;;;10.27;5.50;;;17.10;99.90;;;;;;5023450;28;25052;-78
2021/08/18 05:43:10;;;;;;;12.63;6.90;;;17.20;99.90;;;;;;5023203;28;25084;-77
2021/08/18 05:45:36;;;;;;;15.35;7.78;;;17.10;99.90;;;;;;5028618;28;25083;-78
2021/08/18 05:48:01;;;;;;;13.77;7.13;;;17.10;99.90;;;;;;5026948;28;25061;-77
2021/08/18 05:50:27;;;;;;;11.15;6.47;;;17.10;99.90;;;;;;5020656;28;25063;-76
2021/08/18 05:52:52;;;;;;;11.77;7.65;;;17.20;99.90;;;;;;5015562;28;25085;-76
2021/08/18 05:55:18;;;;;;;9.65;5.90;;;17.20;99.90;;;;;;5017272;28;25052;-77
2021/08/18 05:57:44;;;;;;;11.40;6.93;;;17.30;99.90;;;;;;5019150;28;25070;-77
2021/08/18 06:00:10;;;;;;;12.88;6.57;;;17.30;99.90;;;;;;5016333;28;25057;-75
2021/08/18 06:02:35;;;;;;;13.20;7.15;;;17.30;99.90;;;;;;5002244;28;25065;-75
2021/08/18 06:05:01;;;;;;;13.20;7.40;;;17.20;99.90;;;;;;5014968;28;25083;-77
2021/08/18 06:07:26;;;;;;;9.60;7.60;;;17.20;99.90;;;;;;4980616;28;25107;-77
2021/08/18 06:09:52;;;;;;;8.02;7.10;;;17.10;99.90;;;;;;5014341;28;25143;-76
2021/08/18 06:12:18;;;;;;;8.02;6.35;;;17.20;99.90;;;;;;5015069;28;25069;-78
2021/08/18 06:14:43;;;;;;;12.73;7.75;;;17.20;99.90;;;;;;5012833;28;25148;-76
2021/08/18 06:17:09;;;;;;;13.02;7.53;;;17.20;99.90;;;;;;5012910;28;25073;-74
2021/08/18 06:19:34;;;;;;;9.23;7.15;;;17.30;99.90;;;;;;5011350;28;25081;-75
2021/08/18 06:22:00;;;;;;;14.25;7.85;;;17.30;99.90;;;;;;5016273;28;25120;-76
2021/08/18 06:24:40;;;;;;;13.45;8.50;;;17.40;99.90;;;;;;5017187;28;25084;-76
2021/08/18 06:27:06;;;;;;;12.10;7.35;;;17.40;99.90;;;;;;5014177;28;25056;-75
2021/08/18 06:29:32;;;;;;;8.95;6.72;;;17.40;99.90;;;;;;4995205;28;25105;-75
2021/08/18 06:31:58;;;;;;;10.65;6.85;;;17.40;99.90;;;;;;5013510;28;25071;-76
2021/08/18 06:34:24;;;;;;;8.13;6.68;;;17.40;99.90;;;;;;5005946;28;25065;-76
2021/08/18 06:36:50;;;;;;;8.38;6.97;;;17.50;99.90;;;;;;5013562;28;25083;-76
2021/08/18 06:39:15;;;;;;;9.43;7.00;;;17.50;99.90;;;;;;4997834;28;25053;-77
2021/08/18 06:41:41;;;;;;;17.02;7.72;;;17.50;99.90;;;;;;5018726;28;25153;-76
2021/08/18 06:44:07;;;;;;;10.25;6.72;;;17.50;99.90;;;;;;5013104;28;25064;-76
2021/08/18 06:46:32;;;;;;;14.30;8.40;;;17.50;99.90;;;;;;5013239;28;25098;-76
2021/08/18 06:48:58;;;;;;;9.77;7.15;;;17.50;99.90;;;;;;5016534;28;25116;-78
2021/08/18 06:51:23;;;;;;;14.98;9.52;;;17.60;99.90;;;;;;5015621;28;25056;-76
2021/08/18 06:53:49;;;;;;;15.25;8.93;;;17.60;99.90;;;;;;5014278;28;25054;-77
2021/08/18 06:56:14;;;;;;;14.38;9.57;;;17.50;99.90;;;;;;4998933;28;25068;-76
2021/08/18 06:58:40;;;;;;;12.43;8.88;;;17.50;99.90;;;;;;5009470;28;25073;-74
2021/08/18 07:01:06;;;;;;;15.15;10.85;;;17.50;99.90;;;;;;5019581;28;25066;-75
2021/08/18 07:03:32;;;;;;;20.40;11.20;;;17.40;99.90;;;;;;5022320;28;25076;-76
2021/08/18 07:05:58;;;;;;;14.15;10.27;;;17.40;99.90;;;;;;5022978;28;25055;-76
2021/08/18 07:08:24;;;;;;;15.02;11.27;;;17.40;99.90;;;;;;5021594;28;25069;-76
2021/08/18 07:10:51;;;;;;;18.85;12.45;;;17.40;99.90;;;;;;5023206;28;25079;-75
2021/08/18 07:13:17;;;;;;;21.02;12.73;;;17.50;99.90;;;;;;5003340;28;25060;-76
2021/08/18 07:15:42;;;;;;;18.58;12.63;;;17.40;99.90;;;;;;5003987;28;25074;-76
2021/08/18 07:18:08;;;;;;;16.77;13.10;;;17.40;99.90;;;;;;5017670;28;25050;-77
2021/08/18 07:20:34;;;;;;;22.42;13.23;;;17.50;99.90;;;;;;5014898;28;25050;-75
2021/08/18 07:22:59;;;;;;;18.15;12.07;;;17.50;99.90;;;;;;5014543;28;25056;-75
2021/08/18 07:25:25;;;;;;;18.58;12.55;;;17.60;99.90;;;;;;5015916;28;25063;-77
2021/08/18 07:27:51;;;;;;;19.15;12.57;;;17.70;99.90;;;;;;5017171;28;25115;-77
2021/08/18 07:30:17;;;;;;;20.02;12.75;;;17.70;99.90;;;;;;5011839;28;25055;-76
2021/08/18 07:32:44;;;;;;;19.70;13.23;;;17.70;99.90;;;;;;5010676;28;25167;-78
2021/08/18 07:35:10;;;;;;;21.60;13.85;;;17.80;99.90;;;;;;5013226;28;25065;-78
2021/08/18 07:37:37;;;;;;;21.67;13.20;;;17.80;99.90;;;;;;5011639;28;25059;-75
2021/08/18 07:40:03;;;;;;;21.05;13.70;;;17.80;99.90;;;;;;5014119;28;25060;-77
2021/08/18 07:42:29;;;;;;;20.48;13.77;;;17.70;99.90;;;;;;5015429;28;25134;-76
2021/08/18 07:44:54;;;;;;;18.50;13.57;;;17.70;99.90;;;;;;5015268;28;25063;-76
2021/08/18 07:47:20;;;;;;;25.58;13.38;;;17.70;99.90;;;;;;5032569;28;25061;-76
2021/08/18 07:49:48;;;;;;;22.55;12.90;;;17.80;99.90;;;;;;5033688;28;25054;-76
2021/08/18 07:52:14;;;;;;;19.98;13.48;;;17.90;99.90;;;;;;5026092;28;25070;-76
2021/08/18 07:54:40;;;;;;;27.42;14.38;;;17.80;99.90;;;;;;5009806;28;25078;-75
2021/08/18 07:57:05;;;;;;;19.00;14.18;;;17.80;99.90;;;;;;5011751;28;25058;-76
2021/08/18 07:59:31;;;;;;;20.70;13.88;;;17.90;99.90;;;;;;5008940;28;25063;-74
2021/08/18 08:01:56;;;;;;;18.48;13.23;;;17.90;99.90;;;;;;5008609;28;25103;-76
2021/08/18 08:04:22;;;;;;;17.65;13.35;;;18.00;99.90;;;;;;5009272;28;25072;-76
2021/08/18 08:06:49;;;;;;;18.80;12.85;;;18.00;99.90;;;;;;5008963;28;25071;-77
2021/08/18 08:09:15;;;;;;;21.17;12.40;;;18.00;99.90;;;;;;5009205;28;25076;-75
2021/08/18 08:11:48;;;;;;;18.23;12.68;;;18.00;99.90;;;;;;5010484;28;25096;-75
2021/08/18 08:14:13;;;;;;;;;;;18.10;99.90;;;;;;5009618;28;25110;-75
2021/08/18 08:16:39;;;;;;;17.23;13.00;;;18.20;99.90;;;;;;5009974;28;25156;-73
2021/08/18 08:19:05;;;;;;;21.92;14.23;;;18.10;99.90;;;;;;5012358;28;25175;-76
2021/08/18 08:21:31;;;;;;;21.48;13.18;;;18.10;99.90;;;;;;5014841;28;25060;-75
2021/08/18 08:23:57;;;;;;;21.27;14.43;;;18.10;99.90;;;;;;5012519;28;25092;-76
2021/08/18 08:26:23;;;;;;;21.02;13.20;;;18.10;99.90;;;;;;4999912;28;25089;-78
2021/08/18 08:28:48;;;;;;;20.88;13.88;;;18.00;99.90;;;;;;5013041;28;25097;-76
2021/08/18 08:31:14;;;;;;;20.33;13.70;;;17.90;99.90;;;;;;5012827;28;25061;-77
2021/08/18 08:33:40;;;;;;;12.90;11.43;;;17.90;99.90;;;;;;5013311;28;25123;-77
2021/08/18 08:36:05;;;;;;;11.63;9.35;;;17.80;99.90;;;;;;5012030;28;25088;-76
2021/08/18 08:38:31;;;;;;;14.77;10.15;;;17.70;99.90;;;;;;5011937;28;25052;-77
2021/08/18 08:40:56;;;;;;;12.75;9.25;;;17.60;99.90;;;;;;5013315;28;25086;-76
2021/08/18 08:43:24;;;;;;;12.40;7.93;;;17.60;99.90;;;;;;5014591;28;25154;-76
2021/08/18 08:45:50;;;;;;;10.35;9.15;;;17.70;99.90;;;;;;5018288;28;25077;-76
2021/08/18 08:48:19;;;;;;;12.15;9.30;;;17.70;99.90;;;;;;5020163;28;25122;-76
2021/08/18 08:50:47;;;;;;;10.52;9.15;;;17.70;99.90;;;;;;5034402;28;25063;-75
2021/08/18 08:53:13;;;;;;;10.43;9.32;;;17.80;99.90;;;;;;5032603;28;25049;-77
2021/08/18 08:55:40;;;;;;;12.90;9.52;;;17.80;99.90;;;;;;5018617;28;25062;-76
2021/08/18 08:58:06;;;;;;;14.20;9.98;;;18.00;99.90;;;;;;5015231;28;25089;-75
2021/08/18 09:00:31;;;;;;;18.60;10.82;;;18.00;99.90;;;;;;5014328;28;25060;-78
2021/08/18 09:03:15;;;;;;;16.02;11.65;;;18.00;99.90;;;;;;5013755;28;25064;-74
2021/08/18 09:05:45;;;;;;;15.88;11.07;;;18.10;99.90;;;;;;5005847;28;25091;-76
2021/08/18 09:08:14;;;;;;;18.45;11.60;;;18.20;99.90;;;;;;4995167;28;25071;-76
2021/08/18 09:10:41;;;;;;;19.05;11.38;;;18.20;99.90;;;;;;5011267;28;25062;-76
2021/08/18 09:13:13;;;;;;;20.00;11.77;;;18.20;99.90;;;;;;5013423;28;25091;-75
2021/08/18 09:15:41;;;;;;;18.17;11.55;;;18.20;99.90;;;;;;4995120;28;25120;-75
2021/08/18 09:18:07;;;;;;;14.65;10.23;;;18.30;99.90;;;;;;5013644;28;25073;-76
2021/08/18 09:20:41;;;;;;;18.20;10.95;;;18.50;99.90;;;;;;4997451;28;25061;-77
2021/08/18 09:23:11;;;;;;;18.60;10.82;;;18.50;99.90;;;;;;5016107;28;25056;-77
2021/08/18 09:25:42;;;;;;;16.60;11.35;;;18.40;99.90;;;;;;5013775;28;25070;-76
2021/08/18 09:28:07;;;;;;;20.25;11.07;;;18.40;99.90;;;;;;5012279;28;25155;-77
2021/08/18 09:30:39;;;;;;;18.45;10.88;;;18.40;99.90;;;;;;4996849;28;25079;-77
2021/08/18 09:33:13;;;;;;;15.68;11.23;;;18.40;99.90;;;;;;4994908;28;25062;-76
2021/08/18 09:35:41;;;;;;;12.70;9.82;;;18.40;99.90;;;;;;5014638;28;25147;-76
2021/08/18 09:38:12;;;;;;;15.40;10.55;;;18.30;99.90;;;;;;5015718;28;25072;-76
2021/08/18 09:40:43;;;;;;;15.65;9.75;;;18.30;99.90;;;;;;5015525;28;25049;-77
2021/08/18 09:43:21;;;;;;;11.48;8.82;;;18.40;99.90;;;;;;5013717;28;25135;-76
2021/08/18 09:46:02;;;;;;;21.23;9.30;;;18.50;99.90;;;;;;4996817;28;25152;-76
2021/08/18 09:48:33;;;;;;;19.05;8.23;;;18.60;99.90;;;;;;5013404;28;25085;-77
2021/08/18 09:51:00;;;;;;;12.20;8.43;;;18.50;99.90;;;;;;5012874;28;25047;-75
2021/08/18 09:53:32;;;;;;;14.00;7.75;;;18.50;99.90;;;;;;5011294;28;25201;-75
2021/08/18 09:56:02;;;;;;;;;;;18.50;99.90;;;;;;5014359;28;25281;-76
2021/08/18 09:58:30;;;;;;;14.20;7.30;;;18.60;99.90;;;;;;5012295;28;24069;-75
2021/08/18 10:01:04;;;;;;;14.43;7.47;;;18.60;99.90;;;;;;5012635;28;25079;-77
2021/08/18 10:03:32;;;;;;;14.73;7.97;;;18.60;99.90;;;;;;5008978;28;25052;-75
2021/08/18 10:05:59;;;;;;;15.65;6.68;;;18.50;99.90;;;;;;4991218;28;24994;-75
2021/08/18 10:08:25;;;;;;;12.27;7.13;;;18.60;99.90;;;;;;5017750;28;25096;-75
2021/08/18 10:10:53;;;;;;;15.02;7.45;;;18.60;99.90;;;;;;5011791;28;25062;-77
2021/08/18 10:13:20;;;;;;;13.48;7.15;;;18.50;99.90;;;;;;5012694;28;25077;-76
2021/08/18 10:15:46;;;;;;;12.88;6.85;;;18.60;99.90;;;;;;4993304;28;25061;-78
2021/08/18 10:18:29;;;;;;;16.15;6.57;;;18.70;99.90;;;;;;4994327;28;25077;-76
2021/08/18 10:20:59;;;;;;;10.18;6.70;;;18.70;99.90;;;;;;4993446;28;25074;-77
2021/08/18 10:23:47;;;;;;;10.93;6.50;;;18.80;99.90;;;;;;4996125;28;25085;-77
2021/08/18 10:26:31;;;;;;;13.35;6.63;;;18.80;99.90;;;;;;5005338;28;25068;-77
2021/08/18 10:29:16;;;;;;;12.15;6.85;;;18.80;99.90;;;;;;5009136;28;25215;-79
2021/08/18 10:31:45;;;;;;;14.07;5.80;;;18.80;99.90;;;;;;5013996;28;25139;-76
2021/08/18 10:34:41;;;;;;;8.88;5.75;;;18.70;99.90;;;;;;5011741;28;25070;-76
2021/08/18 10:37:28;;;;;;;9.95;5.03;;;18.60;99.90;;;;;;5011010;28;25060;-77
2021/08/18 10:39:56;;;;;;;5.72;4.70;;;18.80;99.90;;;;;;4998297;28;25086;-76
2021/08/18 10:42:39;;;;;;;8.30;5.10;;;18.90;99.90;;;;;;5011287;28;25068;-76
2021/08/18 10:45:36;;;;;;;15.77;5.60;;;19.00;99.90;;;;;;5015392;28;25058;-75
2021/08/18 10:48:03;;;;;;;11.75;5.65;;;19.00;99.90;;;;;;4999033;28;25092;-77
2021/08/18 10:50:40;;;;;;;9.05;5.30;;;19.20;99.90;;;;;;5015410;28;25062;-76
2021/08/18 10:53:27;;;;;;;7.65;5.05;;;19.50;99.90;;;;;;5013632;28;25056;-76
2021/08/18 10:55:52;;;;;;;9.00;4.57;;;19.80;99.90;;;;;;5014540;28;25053;-76
2021/08/18 10:58:29;;;;;;;6.22;4.55;;;19.90;99.90;;;;;;5015557;28;25047;-76
2021/08/18 11:00:59;;;;;;;6.45;4.75;;;19.90;99.90;;;;;;5019523;28;25063;-76
2021/08/18 11:03:31;;;;;;;7.82;4.60;;;19.90;99.90;;;;;;5020540;28;25075;-76
2021/08/18 11:05:58;;;;;;;8.67;4.17;;;20.00;99.90;;;;;;5019305;28;25079;-77
2021/08/18 11:08:25;;;;;;;6.82;4.55;;;19.90;99.90;;;;;;5004558;28;25088;-77
2021/08/18 11:10:50;;;;;;;8.85;4.32;;;19.80;99.90;;;;;;4998545;28;25144;-77
2021/08/18 11:13:17;;;;;;;6.93;4.57;;;19.80;99.90;;;;;;5016107;28;25113;-77
2021/08/18 11:15:43;;;;;;;9.90;4.32;;;19.90;99.90;;;;;;5015611;28;25065;-76
2021/08/18 11:18:10;;;;;;;7.10;4.40;;;19.90;99.90;;;;;;4999511;28;25087;-78
2021/08/18 11:20:36;;;;;;;7.53;3.30;;;19.90;99.90;;;;;;5015350;28;25146;-78
2021/08/18 11:23:07;;;;;;;4.78;3.38;;;19.90;99.90;;;;;;5002280;28;25068;-77
2021/08/18 11:25:42;;;;;;;7.85;3.50;;;20.10;99.90;;;;;;5017464;28;25065;-77
2021/08/18 11:28:07;;;;;;;5.55;3.25;;;20.20;99.90;;;;;;5001930;28;25065;-79
2021/08/18 11:30:33;;;;;;;4.40;3.17;;;20.40;99.90;;;;;;5017748;28;25083;-79
2021/08/18 11:33:21;;;;;;;3.35;3.05;;;20.50;99.90;;;;;;5017428;28;25165;-76
2021/08/18 11:35:47;;;;;;;3.65;3.05;;;20.90;99.90;;;;;;5015701;28;25139;-77
2021/08/18 11:38:12;;;;;;;5.25;3.15;;;20.70;99.90;;;;;;5018286;28;25066;-76
2021/08/18 11:40:39;;;;;;;4.05;2.75;;;20.60;99.90;;;;;;5014478;28;25052;-76
2021/08/18 11:43:05;;;;;;;4.88;2.90;;;20.40;99.90;;;;;;5021092;28;25058;-78
2021/08/18 11:45:34;;;;;;;3.08;2.58;;;20.30;99.90;;;;;;5018267;28;25075;-79
2021/08/18 11:48:07;;;;;;;3.00;2.38;;;20.30;99.90;;;;;;5018520;28;25079;-78
2021/08/18 11:50:33;;;;;;;3.90;2.53;;;20.20;99.90;;;;;;5016736;28;25056;-79
2021/08/18 11:53:07;;;;;;;7.45;2.92;;;20.10;99.90;;;;;;5018175;28;25136;-79
2021/08/18 11:55:34;;;;;;;2.95;2.65;;;20.00;99.90;;;;;;5017504;28;25139;-80
2021/08/18 11:58:07;;;;;;;4.22;2.67;;;19.90;99.90;;;;;;5019789;28;25067;-80
2021/08/18 12:00:34;;;;;;;3.88;2.65;;;19.80;99.90;;;;;;5021957;28;25049;-79
2021/08/18 12:03:01;;;;;;;3.67;2.88;;;19.80;99.90;;;;;;5019734;28;25073;-78
2021/08/18 12:05:36;;;;;;;3.92;2.92;;;19.80;99.90;;;;;;5020329;28;25098;-78
2021/08/18 12:08:07;;;;;;;4.28;2.88;;;19.70;99.90;;;;;;5017665;28;25063;-78
2021/08/18 12:10:46;;;;;;;3.30;3.00;;;19.80;99.90;;;;;;5017298;28;25119;-77
2021/08/18 12:13:14;;;;;;;3.22;2.40;;;19.90;99.90;;;;;;5015612;28;25081;-78
2021/08/18 12:15:45;;;;;;;4.78;2.90;;;19.90;99.90;;;;;;5025594;28;25082;-78
2021/08/18 12:18:51;;;;;;;4.47;3.00;;;20.10;99.90;;;;;;5023458;28;25060;-77
2021/08/18 12:21:27;;;;;;;6.70;3.25;;;20.20;99.90;;;;;;4975449;28;25057;-79
2021/08/18 12:24:07;;;;;;;4.70;3.00;;;20.30;99.90;;;;;;4999741;28;25064;-76
2021/08/18 12:26:35;;;;;;;5.28;3.40;;;20.30;99.90;;;;;;5034049;28;25063;-76
2021/08/18 12:29:08;;;;;;;8.25;3.20;;;20.00;99.90;;;;;;5034228;28;25071;-78
2021/08/18 12:32:14;;;;;;;9.63;3.40;;;19.70;99.90;;;;;;5032155;28;25088;-78
2021/08/18 12:34:41;;;;;;;7.88;2.97;;;19.70;99.90;;;;;;5012291;28;25043;-78
2021/08/18 12:37:20;;;;;;;5.05;2.72;;;19.70;99.90;;;;;;5029074;28;25041;-79
2021/08/18 12:40:00;;;;;;;6.72;3.25;;;19.70;99.90;;;;;;5028831;28;25065;-77
2021/08/18 12:42:28;;;;;;;9.05;3.65;;;19.70;99.90;;;;;;5021173;28;25093;-78
2021/08/18 12:45:03;;;;;;;8.02;3.33;;;19.60;99.90;;;;;;5023072;28;25116;-78